Time;durP1;ratioP1;P1;durP2;ratioP2;P2;SDS_P1;SDS_P2;PMS_P1;PMS_P2;Temp;Humidity;BMP_temperature;BMP_pressure;BME280_temperature;BME280_humidity;BME280_pressure;Samples;Min_cycle;Max_cycle;Signal;HPM_P1;HPM_P2
2023/01/24 00:00:10;;;;;;;56.83;26.85;;;1.30;99.90;;;;;;5072298;28;20036;-54
2023/01/24 00:02:35;;;;;;;61.10;28.77;;;1.20;99.90;;;;;;5054360;28;20036;-57
2023/01/24 00:05:01;;;;;;;63.40;28.50;;;1.20;99.90;;;;;;5072278;28;20085;-50
2023/01/24 00:07:27;;;;;;;65.95;29.50;;;1.20;99.90;;;;;;5072361;28;20098;-53
2023/01/24 00:09:52;;;;;;;55.80;27.05;;;1.20;99.90;;;;;;5071930;28;20124;-52
2023/01/24 00:12:18;;;;;;;63.72;27.38;;;1.20;99.90;;;;;;5072400;28;20611;-55
2023/01/24 00:14:44;;;;;;;58.25;29.38;;;1.20;99.90;;;;;;5072092;28;20508;-52
2023/01/24 00:17:09;;;;;;;54.55;26.48;;;1.20;99.90;;;;;;5072148;28;20360;-50
2023/01/24 00:19:35;;;;;;;53.28;27.50;;;1.20;99.90;;;;;;5071701;28;20036;-52
2023/01/24 00:22:03;;;;;;;57.13;27.33;;;1.20;99.90;;;;;;5071913;28;20029;-55
2023/01/24 00:24:29;;;;;;;56.47;24.77;;;1.20;99.90;;;;;;5070706;28;20029;-56
2023/01/24 00:26:55;;;;;;;45.45;25.10;;;1.20;99.90;;;;;;5071846;28;20024;-55
2023/01/24 00:29:21;;;;;;;62.83;28.88;;;1.20;99.90;;;;;;5071771;28;20077;-52
2023/01/24 00:31:46;;;;;;;53.90;25.85;;;1.20;99.90;;;;;;5071769;28;20028;-51
2023/01/24 00:34:12;;;;;;;57.42;28.05;;;1.20;99.90;;;;;;5071851;28;20466;-52
2023/01/24 00:36:38;;;;;;;51.70;26.50;;;1.20;99.90;;;;;;5071765;28;20059;-54
2023/01/24 00:39:03;;;;;;;63.33;27.40;;;1.20;99.90;;;;;;5071564;28;20479;-56
2023/01/24 00:41:29;;;;;;;51.92;25.73;;;1.20;99.90;;;;;;5070421;28;20046;-57
2023/01/24 00:43:55;;;;;;;61.10;26.98;;;1.10;99.90;;;;;;5071601;28;20475;-53
2023/01/24 00:46:21;;;;;;;55.65;26.15;;;1.20;99.90;;;;;;5071661;28;20035;-52
2023/01/24 00:48:46;;;;;;;51.70;24.83;;;1.10;99.90;;;;;;5071449;28;20056;-56
2023/01/24 00:51:12;;;;;;;49.47;25.23;;;1.20;99.90;;;;;;5071712;28;20020;-51
2023/01/24 00:53:37;;;;;;;49.10;25.10;;;1.20;99.90;;;;;;5071570;28;20020;-51
2023/01/24 00:56:03;;;;;;;46.25;25.55;;;1.20;99.90;;;;;;5071494;28;20433;-53
2023/01/24 00:58:29;;;;;;;50.75;23.98;;;1.20;99.90;;;;;;5071464;28;20025;-51
2023/01/24 01:00:56;;;;;;;50.10;23.23;;;1.20;99.90;;;;;;5071252;28;20483;-53
2023/01/24 01:03:22;;;;;;;45.17;22.65;;;1.20;99.90;;;;;;5071572;28;20017;-52
2023/01/24 01:05:48;;;;;;;47.45;24.67;;;1.20;99.90;;;;;;5071280;28;20422;-53
2023/01/24 01:08:14;;;;;;;52.30;26.40;;;1.20;99.90;;;;;;5071120;28;20039;-53
2023/01/24 01:10:40;;;;;;;57.17;26.33;;;1.30;99.90;;;;;;5071566;28;20048;-55
2023/01/24 01:13:06;;;;;;;45.75;24.30;;;1.20;99.90;;;;;;5071326;28;20036;-55
2023/01/24 01:15:31;;;;;;;50.42;23.70;;;1.20;99.90;;;;;;5070432;28;20029;-51
2023/01/24 01:17:58;;;;;;;51.08;25.02;;;1.20;99.90;;;;;;5071456;28;20107;-52
2023/01/24 01:20:24;;;;;;;54.83;27.20;;;1.20;99.90;;;;;;5071557;28;20033;-52
2023/01/24 01:22:50;;;;;;;52.70;25.42;;;1.20;99.90;;;;;;5071119;28;20025;-53
2023/01/24 01:25:16;;;;;;;49.25;25.25;;;1.20;99.90;;;;;;5071414;28;20371;-54
2023/01/24 01:27:42;;;;;;;54.80;25.25;;;1.20;99.90;;;;;;5071356;28;20031;-52
2023/01/24 01:30:08;;;;;;;54.65;25.13;;;1.20;99.90;;;;;;5071859;28;20040;-54
2023/01/24 01:32:33;;;;;;;52.00;24.42;;;1.20;99.90;;;;;;5075309;28;20021;-57
2023/01/24 01:34:59;;;;;;;57.08;25.08;;;1.20;99.90;;;;;;5075122;28;20043;-53
2023/01/24 01:37:25;;;;;;;45.10;25.10;;;1.20;99.90;;;;;;5075054;28;20044;-56
2023/01/24 01:39:50;;;;;;;58.03;26.52;;;1.30;99.90;;;;;;5074976;28;20031;-52
2023/01/24 01:42:17;;;;;;;49.13;24.63;;;1.30;99.90;;;;;;5075526;28;20372;-55
2023/01/24 01:44:49;;;;;;;51.13;25.95;;;1.30;99.90;;;;;;5075689;28;20035;-53
2023/01/24 01:47:31;;;;;;;53.35;24.60;;;1.30;99.90;;;;;;5075614;28;20055;-53
2023/01/24 01:50:05;;;;;;;48.17;24.15;;;1.30;99.90;;;;;;5074741;28;20108;-54
2023/01/24 01:52:38;;;;;;;53.90;24.92;;;1.30;99.90;;;;;;5074907;28;20029;-53
2023/01/24 01:55:18;;;;;;;55.00;24.80;;;1.30;99.90;;;;;;5074695;28;20020;-53
2023/01/24 01:57:45;;;;;;;58.28;24.63;;;1.30;99.90;;;;;;5074598;28;20021;-53
2023/01/24 02:00:12;;;;;;;53.28;24.27;;;1.30;99.90;;;;;;5074662;28;20108;-51
2023/01/24 02:02:42;;;;;;;53.17;24.95;;;1.30;99.90;;;;;;5074436;28;20016;-55
2023/01/24 02:05:11;;;;;;;52.42;24.88;;;1.30;99.90;;;;;;5074663;28;20024;-52
2023/01/24 02:07:53;;;;;;;54.53;25.02;;;1.30;99.90;;;;;;5074665;28;20021;-53
2023/01/24 02:10:23;;;;;;;47.05;24.05;;;1.40;99.90;;;;;;5074268;28;20090;-56
2023/01/24 02:12:53;;;;;;;48.90;24.75;;;1.40;99.90;;;;;;5074270;28;20387;-53
2023/01/24 02:18:07;;;;;;;51.22;24.15;;;1.30;99.90;;;;;;5074736;28;20540;-52
2023/01/24 02:20:46;;;;;;;57.60;23.77;;;1.30;99.90;;;;;;5074531;28;20033;-51
2023/01/24 02:23:20;;;;;;;50.80;24.45;;;1.30;99.90;;;;;;5074290;28;20064;-53
2023/01/24 02:26:06;;;;;;;50.17;22.70;;;1.30;99.90;;;;;;5074036;28;20028;-50
2023/01/24 02:28:33;;;;;;;41.40;23.67;;;1.40;99.90;;;;;;5073786;28;20036;-54
2023/01/24 02:31:00;;;;;;;50.75;26.02;;;1.40;99.90;;;;;;5074174;28;20028;-51
2023/01/24 02:33:27;;;;;;;47.03;22.77;;;1.40;99.90;;;;;;5074246;28;20407;-55
2023/01/24 02:36:06;;;;;;;46.00;23.60;;;1.40;99.90;;;;;;5073962;28;20345;-56
2023/01/24 02:38:32;;;;;;;47.78;23.67;;;1.30;99.90;;;;;;5073861;28;20020;-53
2023/01/24 02:41:06;;;;;;;46.90;24.58;;;1.30;99.90;;;;;;5073315;28;20101;-54
2023/01/24 02:43:39;;;;;;;44.97;23.00;;;1.30;99.90;;;;;;5072550;28;20020;-55
2023/01/24 02:46:04;;;;;;;45.90;23.42;;;1.40;99.90;;;;;;5073885;28;20502;-54
2023/01/24 02:48:30;;;;;;;43.25;22.17;;;1.30;99.90;;;;;;5073782;28;20048;-56
2023/01/24 02:53:43;;;;;;;40.78;22.02;;;1.30;99.90;;;;;;5073720;28;20043;-52
2023/01/24 02:58:54;;;;;;;41.92;21.30;;;1.40;99.90;;;;;;5073748;28;20044;-52
2023/01/24 03:01:20;;;;;;;43.75;22.20;;;1.40;99.90;;;;;;5073695;28;20058;-54
2023/01/24 03:03:47;;;;;;;44.85;22.83;;;1.40;99.90;;;;;;5073482;28;20035;-55
2023/01/24 03:06:15;;;;;;;51.35;24.75;;;1.40;99.90;;;;;;5073531;28;20570;-53
2023/01/24 03:08:41;;;;;;;43.95;22.52;;;1.40;99.90;;;;;;5073161;28;20055;-56
2023/01/24 03:11:08;;;;;;;41.78;21.08;;;1.40;99.90;;;;;;5073295;28;20048;-54
2023/01/24 03:35:32;;;;;;;43.40;23.55;;;1.40;99.90;;;;;;5073460;28;20036;-52
2023/01/24 03:40:42;;;;;;;41.15;22.58;;;1.40;99.90;;;;;;5072768;28;20031;-54
2023/01/24 03:43:08;;;;;;;39.00;21.27;;;1.40;99.90;;;;;;5072905;28;20028;-57
2023/01/24 03:45:36;;;;;;;42.60;21.05;;;1.40;99.90;;;;;;5072879;28;20074;-54
2023/01/24 03:48:09;;;;;;;39.80;21.88;;;1.40;99.90;;;;;;5071267;28;20043;-53
2023/01/24 03:53:24;;;;;;;46.58;24.17;;;1.40;99.90;;;;;;5072099;28;20398;-52
2023/01/24 03:55:57;;;;;;;45.72;23.30;;;1.40;99.90;;;;;;5072437;28;20024;-53
2023/01/24 03:58:24;;;;;;;41.22;21.98;;;1.50;99.90;;;;;;5072620;28;20027;-55
2023/01/24 04:00:52;;;;;;;39.42;22.35;;;1.40;99.90;;;;;;5072329;28;20035;-50
2023/01/24 04:03:18;;;;;;;48.97;24.70;;;1.40;99.90;;;;;;5072518;28;20012;-50
2023/01/24 04:05:45;;;;;;;45.28;24.58;;;1.40;99.90;;;;;;5072067;28;20069;-52
2023/01/24 04:08:11;;;;;;;42.70;22.33;;;1.40;99.90;;;;;;5072156;28;20021;-52
2023/01/24 04:10:37;;;;;;;39.58;22.02;;;1.40;99.90;;;;;;5072201;28;20020;-56
2023/01/24 04:13:02;;;;;;;40.08;22.35;;;1.50;99.90;;;;;;5070715;28;20029;-52
2023/01/24 04:15:30;;;;;;;40.13;20.98;;;1.40;99.90;;;;;;5072188;28;20027;-53
2023/01/24 04:17:57;;;;;;;40.38;21.48;;;1.40;99.90;;;;;;5071846;28;20375;-50
2023/01/24 04:20:24;;;;;;;40.78;20.33;;;1.50;99.90;;;;;;5072050;28;20025;-55
2023/01/24 04:22:50;;;;;;;39.97;21.83;;;1.50;99.90;;;;;;5071850;28;20400;-57
2023/01/24 04:25:16;;;;;;;38.38;20.75;;;1.40;99.90;;;;;;5071998;28;20082;-56
2023/01/24 04:27:42;;;;;;;38.70;21.52;;;1.40;99.90;;;;;;5071712;28;20116;-53
2023/01/24 04:30:10;;;;;;;35.75;20.75;;;1.40;99.90;;;;;;5071878;28;20049;-56
2023/01/24 04:32:37;;;;;;;38.70;20.73;;;1.50;99.90;;;;;;5071820;28;20029;-51
2023/01/24 04:35:03;;;;;;;36.28;19.20;;;1.50;99.90;;;;;;5071562;28;20025;-55
2023/01/24 04:37:30;;;;;;;38.42;21.48;;;1.50;99.90;;;;;;5071787;28;20052;-56
2023/01/24 04:39:56;;;;;;;38.58;22.42;;;1.40;99.90;;;;;;5071627;28;20024;-54
2023/01/24 04:42:22;;;;;;;41.03;21.38;;;1.40;99.90;;;;;;5071931;28;20043;-53
2023/01/24 04:44:47;;;;;;;47.25;23.77;;;1.40;99.90;;;;;;5071750;28;20430;-54
2023/01/24 04:47:13;;;;;;;49.38;22.17;;;1.40;99.90;;;;;;5071611;28;20032;-53
2023/01/24 04:49:41;;;;;;;44.25;22.30;;;1.40;99.90;;;;;;5071404;28;20036;-55
2023/01/24 04:52:11;;;;;;;38.40;20.88;;;1.40;99.90;;;;;;5071582;28;20603;-52
2023/01/24 04:54:40;;;;;;;38.42;20.65;;;1.50;99.90;;;;;;5071729;28;20456;-53
2023/01/24 04:57:07;;;;;;;38.45;21.33;;;1.50;99.90;;;;;;5071568;28;20035;-57
2023/01/24 04:59:33;;;;;;;41.97;23.33;;;1.50;99.90;;;;;;5071557;28;20028;-54
2023/01/24 05:01:58;;;;;;;41.50;22.30;;;1.40;99.90;;;;;;5071346;28;20032;-52
2023/01/24 05:04:24;;;;;;;37.75;20.40;;;1.40;99.90;;;;;;5071264;28;20042;-51
2023/01/24 05:06:49;;;;;;;37.10;21.85;;;1.40;99.90;;;;;;5071271;28;20044;-52
2023/01/24 05:09:15;;;;;;;39.03;22.02;;;1.40;99.90;;;;;;5071173;28;20052;-54
2023/01/24 05:11:41;;;;;;;42.22;22.33;;;1.40;99.90;;;;;;5071310;28;20029;-57
2023/01/24 05:14:10;;;;;;;40.45;20.40;;;1.40;99.90;;;;;;5071468;28;20024;-51
2023/01/24 05:16:36;;;;;;;42.60;21.40;;;1.40;99.90;;;;;;5071390;28;20017;-56
2023/01/24 05:19:02;;;;;;;44.85;22.20;;;1.40;99.90;;;;;;5071161;28;20045;-52
2023/01/24 05:21:28;;;;;;;42.58;21.60;;;1.40;99.90;;;;;;5071523;28;20025;-56
2023/01/24 05:23:54;;;;;;;41.67;21.08;;;1.40;99.90;;;;;;5071079;28;20117;-51
2023/01/24 05:26:21;;;;;;;39.88;22.25;;;1.40;99.90;;;;;;5071427;28;20036;-57
2023/01/24 05:28:48;;;;;;;45.10;23.10;;;1.30;99.90;;;;;;5071086;28;20037;-56
2023/01/24 05:31:13;;;;;;;45.22;24.27;;;1.40;99.90;;;;;;5070897;28;20017;-51
2023/01/24 05:33:40;;;;;;;47.95;24.30;;;1.40;99.90;;;;;;5070671;28;20032;-54
2023/01/24 05:36:15;;;;;;;46.55;24.50;;;1.30;99.90;;;;;;5070876;28;20025;-53
2023/01/24 05:38:42;;;;;;;45.67;24.33;;;1.40;99.90;;;;;;5070777;28;20108;-51
2023/01/24 05:41:11;;;;;;;49.10;23.77;;;1.30;99.90;;;;;;5070787;28;20364;-55
2023/01/24 05:43:37;;;;;;;44.45;24.60;;;1.30;99.90;;;;;;5070857;28;20024;-55
2023/01/24 05:46:18;;;;;;;56.50;25.88;;;1.40;99.90;;;;;;5070730;28;20032;-52
2023/01/24 05:48:45;;;;;;;50.92;24.77;;;1.40;99.90;;;;;;5070395;28;20028;-56
2023/01/24 05:51:13;;;;;;;45.65;23.85;;;1.30;99.90;;;;;;5070874;28;20021;-54
2023/01/24 05:53:41;;;;;;;51.00;25.15;;;1.30;99.90;;;;;;5070543;28;20049;-58
2023/01/24 05:56:12;;;;;;;47.92;24.38;;;1.30;99.90;;;;;;5070636;28;20040;-54
2023/01/24 05:58:38;;;;;;;44.47;22.73;;;1.30;99.90;;;;;;5070755;28;20360;-51
2023/01/24 06:01:16;;;;;;;42.55;23.25;;;1.40;99.90;;;;;;5070861;28;20055;-51
2023/01/24 06:03:43;;;;;;;46.42;24.90;;;1.40;99.90;;;;;;5070618;28;20020;-49
2023/01/24 06:06:11;;;;;;;44.97;24.92;;;1.30;99.90;;;;;;5070929;28;20017;-56
2023/01/24 06:08:37;;;;;;;48.60;27.15;;;1.30;99.90;;;;;;5070388;28;20119;-53
2023/01/24 06:11:09;;;;;;;50.75;27.38;;;1.30;99.90;;;;;;5070474;28;20024;-58
2023/01/24 06:13:35;;;;;;;43.75;24.27;;;1.30;99.90;;;;;;5070329;28;20477;-55
2023/01/24 06:16:03;;;;;;;48.17;25.95;;;1.40;99.90;;;;;;5070877;28;20031;-54
2023/01/24 06:18:28;;;;;;;52.55;26.80;;;1.40;99.90;;;;;;5074138;28;20032;-54
2023/01/24 06:20:55;;;;;;;53.72;26.25;;;1.40;99.90;;;;;;5072048;28;20021;-56
2023/01/24 06:23:28;;;;;;;46.80;25.67;;;1.40;99.90;;;;;;5074224;28;20479;-54
2023/01/24 06:25:54;;;;;;;46.20;24.13;;;1.40;99.90;;;;;;5074033;28;20440;-55
2023/01/24 06:28:20;;;;;;;57.17;25.60;;;1.40;99.90;;;;;;5074083;28;20028;-54
2023/01/24 06:30:57;;;;;;;54.38;26.55;;;1.40;99.90;;;;;;5073378;28;20388;-55
2023/01/24 06:33:33;;;;;;;46.45;24.90;;;1.40;99.90;;;;;;5073254;28;20050;-54
2023/01/24 06:36:20;;;;;;;48.88;25.40;;;1.40;99.90;;;;;;5073771;28;20677;-55
2023/01/24 06:38:46;;;;;;;50.75;25.45;;;1.40;99.90;;;;;;5073270;28;20033;-58
2023/01/24 06:41:16;;;;;;;44.60;23.58;;;1.40;99.90;;;;;;5073218;28;20031;-50
2023/01/24 06:43:45;;;;;;;52.95;25.13;;;1.40;99.90;;;;;;5073125;28;20032;-49
2023/01/24 06:46:13;;;;;;;48.75;24.35;;;1.40;99.90;;;;;;5073665;28;20032;-50
2023/01/24 06:48:38;;;;;;;45.72;24.10;;;1.40;99.90;;;;;;5073536;28;20060;-55
2023/01/24 06:51:05;;;;;;;47.20;24.58;;;1.40;99.90;;;;;;5073244;28;20048;-52
2023/01/24 06:53:33;;;;;;;46.22;25.50;;;1.40;99.90;;;;;;5073107;28;20017;-51
2023/01/24 06:55:59;;;;;;;44.30;23.98;;;1.40;99.90;;;;;;5073219;28;20033;-53
2023/01/24 06:58:25;;;;;;;44.75;23.08;;;1.40;99.90;;;;;;5073292;28;20047;-50
2023/01/24 07:00:53;;;;;;;42.30;24.45;;;1.40;99.90;;;;;;5073443;28;20060;-49
2023/01/24 07:03:18;;;;;;;58.55;25.10;;;1.40;99.90;;;;;;5073617;28;20021;-50
2023/01/24 07:05:44;;;;;;;413.67;157.38;;;1.40;99.90;;;;;;5072168;28;20517;-52
2023/01/24 07:08:10;;;;;;;64.97;31.90;;;1.50;99.90;;;;;;5073205;28;20100;-50
2023/01/24 07:10:35;;;;;;;42.67;23.50;;;1.40;99.90;;;;;;5073081;28;20044;-49
2023/01/24 07:13:01;;;;;;;41.10;23.80;;;1.40;99.90;;;;;;5071805;28;20468;-53
2023/01/24 07:15:27;;;;;;;45.65;23.40;;;1.50;99.90;;;;;;5073110;28;20051;-54
2023/01/24 07:17:53;;;;;;;44.85;24.63;;;1.50;99.90;;;;;;5073010;28;20025;-50
2023/01/24 07:20:19;;;;;;;39.88;23.83;;;1.50;99.90;;;;;;5073002;28;20451;-50
2023/01/24 07:22:44;;;;;;;45.75;24.02;;;1.50;99.90;;;;;;5072140;28;20033;-50
2023/01/24 07:25:15;;;;;;;41.65;22.73;;;1.50;99.90;;;;;;5072432;28;20058;-51
2023/01/24 07:27:47;;;;;;;47.20;24.40;;;1.50;99.90;;;;;;5072521;28;20039;-52
2023/01/24 07:30:13;;;;;;;42.65;22.90;;;1.50;99.90;;;;;;5072452;28;20024;-49
2023/01/24 07:32:39;;;;;;;42.22;23.35;;;1.50;99.90;;;;;;5071185;28;20028;-52
2023/01/24 07:35:06;;;;;;;41.22;23.17;;;1.60;99.90;;;;;;5071877;28;20020;-52
2023/01/24 07:37:32;;;;;;;39.97;22.05;;;1.60;99.90;;;;;;5071865;28;20055;-53
2023/01/24 07:39:57;;;;;;;35.55;20.98;;;1.70;99.90;;;;;;5072639;28;20468;-51
2023/01/24 07:42:23;;;;;;;34.80;21.25;;;1.80;99.90;;;;;;5072800;28;20023;-52
2023/01/24 07:44:49;;;;;;;38.65;21.65;;;1.80;99.90;;;;;;5072495;28;20103;-52
2023/01/24 07:47:14;;;;;;;42.13;23.88;;;1.70;99.90;;;;;;5072628;28;20021;-54
2023/01/24 07:49:40;;;;;;;35.95;20.70;;;1.70;99.90;;;;;;5072550;28;20654;-54
2023/01/24 07:52:06;;;;;;;40.83;23.27;;;1.70;99.90;;;;;;5072506;28;20442;-52
2023/01/24 07:54:31;;;;;;;39.53;21.38;;;1.70;99.90;;;;;;5072487;28;20528;-52
2023/01/24 07:56:57;;;;;;;39.53;22.35;;;1.80;99.90;;;;;;5071907;28;20024;-51
2023/01/24 07:59:23;;;;;;;42.13;22.02;;;1.70;99.90;;;;;;5072554;28;20035;-49
2023/01/24 08:01:48;;;;;;;39.75;23.50;;;1.80;99.90;;;;;;5072449;28;20410;-49
2023/01/24 08:04:14;;;;;;;38.75;22.95;;;1.80;99.90;;;;;;5072363;28;20020;-50
2023/01/24 08:07:16;;;;;;;36.65;23.20;;;1.80;99.90;;;;;;5072251;28;20070;-50
2023/01/24 08:09:28;;;;;;;37.38;21.77;;;1.90;99.90;;;;;;5072007;28;20036;-57
2023/01/24 08:11:55;;;;;;;40.63;22.67;;;1.90;99.90;;;;;;5072072;28;20051;-54
2023/01/24 08:14:21;;;;;;;37.60;23.85;;;1.90;99.90;;;;;;5072236;28;20359;-55
2023/01/24 08:16:48;;;;;;;41.97;25.15;;;1.90;99.90;;;;;;5072099;28;20446;-54
2023/01/24 08:19:14;;;;;;;34.22;19.92;;;2.00;99.90;;;;;;5072115;28;20508;-54
2023/01/24 08:21:40;;;;;;;39.75;22.10;;;2.00;99.90;;;;;;5072082;28;20020;-54
2023/01/24 08:24:06;;;;;;;34.30;20.77;;;2.10;99.90;;;;;;5071966;28;20090;-54
2023/01/24 08:26:32;;;;;;;40.40;23.27;;;2.10;99.90;;;;;;5071891;28;20032;-57
2023/01/24 08:28:57;;;;;;;37.75;21.80;;;2.10;99.90;;;;;;5070420;28;20025;-52
2023/01/24 08:31:23;;;;;;;39.70;21.20;;;2.10;99.90;;;;;;5071777;28;20013;-54
2023/01/24 08:33:49;;;;;;;38.58;21.75;;;2.20;99.90;;;;;;5071723;28;20498;-56
2023/01/24 08:36:14;;;;;;;101.07;61.83;;;2.20;99.90;;;;;;5071694;28;20017;-57
2023/01/24 08:38:46;;;;;;;51.42;34.83;;;2.40;99.90;;;;;;5071456;28;20031;-57
2023/01/24 08:41:12;;;;;;;52.70;34.65;;;2.50;99.90;;;;;;5071491;28;20024;-58
2023/01/24 08:43:37;;;;;;;36.42;24.25;;;2.40;99.90;;;;;;5071258;28;20032;-55
2023/01/24 08:46:03;;;;;;;34.15;20.38;;;2.40;99.90;;;;;;5071807;28;20044;-50
2023/01/24 08:48:29;;;;;;;34.95;22.08;;;2.50;99.90;;;;;;5071741;28;20021;-52
2023/01/24 08:50:55;;;;;;;37.42;22.70;;;2.50;99.90;;;;;;5071537;28;20020;-49
2023/01/24 08:53:21;;;;;;;62.47;37.72;;;2.50;99.90;;;;;;5071565;28;20029;-51
2023/01/24 08:55:50;;;;;;;47.28;27.27;;;2.50;99.90;;;;;;5071521;28;20028;-54
2023/01/24 08:58:16;;;;;;;54.45;28.73;;;2.50;99.90;;;;;;5071548;28;20028;-49
2023/01/24 09:00:42;;;;;;;53.40;30.10;;;2.50;99.90;;;;;;5071108;28;20052;-49
2023/01/24 09:03:10;;;;;;;47.83;27.23;;;2.40;99.90;;;;;;5071522;28;20039;-51
2023/01/24 09:05:38;;;;;;;57.58;32.03;;;2.40;99.90;;;;;;5071770;28;20039;-52
2023/01/24 09:08:04;;;;;;;45.35;29.77;;;2.40;99.90;;;;;;5071302;28;20024;-49
2023/01/24 09:10:30;;;;;;;35.92;22.70;;;2.50;99.90;;;;;;5071435;28;20067;-55
2023/01/24 09:12:56;;;;;;;66.72;42.08;;;2.60;99.90;;;;;;5071358;28;20433;-54
2023/01/24 09:15:21;;;;;;;56.30;40.88;;;2.70;99.90;;;;;;5071726;28;20025;-48
2023/01/24 09:17:47;;;;;;;35.92;27.77;;;2.80;99.90;;;;;;5071251;28;20021;-55
2023/01/24 09:20:13;;;;;;;39.42;23.85;;;2.90;99.90;;;;;;5071382;28;20020;-54
2023/01/24 09:22:39;;;;;;;37.90;28.45;;;2.90;99.90;;;;;;5071322;28;20467;-54
2023/01/24 09:25:07;;;;;;;72.68;43.65;;;3.00;99.90;;;;;;5071492;28;20089;-55
2023/01/24 09:27:33;;;;;;;105.30;63.78;;;3.00;99.90;;;;;;5071047;28;20132;-57
2023/01/24 09:29:59;;;;;;;45.03;25.80;;;2.90;99.90;;;;;;5071230;28;20112;-56
2023/01/24 09:32:24;;;;;;;45.13;28.98;;;2.80;99.90;;;;;;5071213;28;20021;-57
2023/01/24 09:34:50;;;;;;;33.75;20.67;;;2.80;99.90;;;;;;5069862;28;20483;-56
2023/01/24 09:37:18;;;;;;;40.85;24.10;;;3.10;99.90;;;;;;5071253;28;20108;-57
2023/01/24 09:39:43;;;;;;;51.78;34.58;;;3.10;99.90;;;;;;5071269;28;20025;-55
2023/01/24 09:42:27;;;;;;;46.15;27.95;;;3.00;99.90;;;;;;5071296;28;20414;-53
2023/01/24 09:44:56;;;;;;;42.58;23.45;;;3.30;99.90;;;;;;5070927;28;20402;-51
2023/01/24 09:47:27;;;;;;;36.85;26.10;;;3.30;99.90;;;;;;5071188;28;20033;-56
2023/01/24 09:50:01;;;;;;;33.92;22.83;;;3.40;99.90;;;;;;5071043;28;20165;-50
2023/01/24 09:52:39;;;;;;;35.25;23.67;;;3.30;99.90;;;;;;5073918;28;20031;-50
2023/01/24 09:55:29;;;;;;;30.33;21.30;;;3.20;99.90;;;;;;5074611;28;20060;-56
2023/01/24 09:58:18;;;;;;;36.70;22.15;;;3.40;99.90;;;;;;5074766;28;20017;-51
2023/01/24 10:00:45;;;;;;;35.00;21.67;;;3.40;99.90;;;;;;5074710;28;20059;-53
2023/01/24 10:03:19;;;;;;;33.25;21.45;;;3.30;99.90;;;;;;5073395;28;20058;-49
2023/01/24 10:05:51;;;;;;;48.35;25.25;;;3.20;99.90;;;;;;5074678;28;20028;-50
2023/01/24 10:08:44;;;;;;;45.53;25.48;;;3.10;99.90;;;;;;5074853;28;20046;-52
2023/01/24 10:11:39;;;;;;;41.40;26.05;;;3.00;99.90;;;;;;5074821;28;20040;-55
2023/01/24 10:14:29;;;;;;;40.00;25.65;;;3.10;99.90;;;;;;5073184;28;20115;-55
2023/01/24 10:17:21;;;;;;;42.28;24.20;;;3.00;99.90;;;;;;5074925;28;20024;-53
2023/01/24 10:20:07;;;;;;;40.45;23.85;;;3.00;99.90;;;;;;5074138;28;20025;-52
2023/01/24 10:22:59;;;;;;;40.53;25.38;;;2.90;99.90;;;;;;5074350;28;20025;-53
2023/01/24 10:25:40;;;;;;;43.35;24.73;;;2.70;99.90;;;;;;5074354;28;20027;-54
2023/01/24 10:28:22;;;;;;;39.05;23.17;;;2.80;99.90;;;;;;5068415;28;20029;-51
2023/01/24 10:31:14;;;;;;;39.88;21.08;;;2.70;99.90;;;;;;5062967;28;20028;-52
2023/01/24 10:33:53;;;;;;;40.03;21.90;;;2.70;99.90;;;;;;5063291;28;20066;-53
2023/01/24 10:36:31;;;;;;;38.85;21.67;;;2.70;99.90;;;;;;5062914;28;20021;-52
2023/01/24 10:38:56;;;;;;;39.47;23.00;;;2.80;99.90;;;;;;5062753;28;20082;-53
2023/01/24 10:41:29;;;;;;;48.78;24.50;;;2.80;99.90;;;;;;5061790;28;20056;-54
2023/01/24 10:44:13;;;;;;;45.77;27.13;;;2.70;99.90;;;;;;5062899;28;20494;-54
2023/01/24 10:46:54;;;;;;;43.22;24.65;;;2.50;99.90;;;;;;5062266;28;20309;-58
2023/01/24 10:49:29;;;;;;;49.53;26.13;;;2.50;99.90;;;;;;5062464;28;20036;-52
2023/01/24 10:52:16;;;;;;;46.83;24.75;;;2.70;99.90;;;;;;5063199;28;20464;-52
2023/01/24 10:54:47;;;;;;;46.22;26.52;;;2.70;99.90;;;;;;5063477;28;20116;-55
2023/01/24 10:57:36;;;;;;;45.38;27.58;;;2.60;99.90;;;;;;5062963;28;20162;-54
2023/01/24 11:00:27;;;;;;;41.17;24.70;;;2.50;99.90;;;;;;5062913;28;20032;-52
2023/01/24 11:02:56;;;;;;;47.40;25.00;;;2.50;99.90;;;;;;5062087;28;20114;-52
2023/01/24 11:05:23;;;;;;;48.65;26.25;;;2.50;99.90;;;;;;5062759;28;20115;-53
2023/01/24 11:07:58;;;;;;;48.42;25.75;;;2.50;99.90;;;;;;5062120;28;20119;-51
2023/01/24 11:10:27;;;;;;;48.33;27.15;;;2.50;99.90;;;;;;5062938;28;20041;-54
2023/01/24 11:12:56;;;;;;;46.08;25.88;;;2.50;99.90;;;;;;5062329;28;20043;-55
2023/01/24 11:15:30;;;;;;;44.65;23.83;;;2.60;99.90;;;;;;5069797;28;20106;-51
2023/01/24 11:18:10;;;;;;;43.30;24.45;;;2.70;99.90;;;;;;5082940;28;20352;-51
2023/01/24 11:20:36;;;;;;;41.60;24.67;;;2.70;99.90;;;;;;5081598;28;20399;-51
2023/01/24 11:23:24;;;;;;;46.92;24.10;;;2.70;99.90;;;;;;5070001;28;20499;-53
2023/01/24 11:26:01;;;;;;;41.28;23.17;;;2.60;99.90;;;;;;5061427;28;20050;-54
2023/01/24 11:28:35;;;;;;;44.05;25.90;;;2.60;99.90;;;;;;5062235;28;20205;-53
2023/01/24 11:31:31;;;;;;;52.45;27.30;;;2.50;99.90;;;;;;5078467;28;20024;-53
2023/01/24 11:34:34;;;;;;;46.83;24.20;;;2.50;99.90;;;;;;5061188;28;20035;-54
2023/01/24 11:37:29;;;;;;;50.40;26.45;;;2.60;99.90;;;;;;5064626;28;20032;-50
2023/01/24 11:40:08;;;;;;;59.92;29.67;;;2.40;99.90;;;;;;5066872;28;20111;-53
2023/01/24 11:42:49;;;;;;;60.97;28.95;;;2.40;99.90;;;;;;5061759;28;20032;-54
2023/01/24 11:45:45;;;;;;;74.40;36.22;;;2.40;99.90;;;;;;5067974;28;20039;-55
2023/01/24 11:48:25;;;;;;;73.85;36.42;;;2.50;99.90;;;;;;5078681;28;20036;-51
2023/01/24 11:51:03;;;;;;;57.35;29.40;;;2.70;99.90;;;;;;5058941;28;20066;-53
2023/01/24 11:53:38;;;;;;;70.53;37.65;;;2.70;99.90;;;;;;5081656;28;20046;-52
2023/01/24 11:56:31;;;;;;;73.55;32.40;;;2.70;99.90;;;;;;5087515;28;20024;-54
2023/01/24 11:59:08;;;;;;;68.40;35.23;;;2.70;99.90;;;;;;5092281;28;20107;-54
2023/01/24 12:01:48;;;;;;;74.28;42.55;;;2.80;99.90;;;;;;5092961;28;20632;-49
2023/01/24 12:04:48;;;;;;;63.03;30.90;;;2.70;99.90;;;;;;5092911;28;20386;-51
2023/01/24 12:07:56;;;;;;;58.42;27.13;;;2.70;99.90;;;;;;5092881;28;20047;-50
2023/01/24 12:10:42;;;;;;;47.58;24.25;;;2.60;99.90;;;;;;5090076;28;20036;-52
2023/01/24 12:13:24;;;;;;;50.78;25.50;;;2.70;99.90;;;;;;5092459;28;20039;-54
2023/01/24 12:16:27;;;;;;;46.65;24.65;;;2.60;99.90;;;;;;5092058;28;20016;-51
2023/01/24 12:19:06;;;;;;;55.42;25.00;;;2.60;99.90;;;;;;5092250;28;20055;-51
2023/01/24 12:21:32;;;;;;;43.38;23.80;;;2.70;99.90;;;;;;5092430;28;20031;-52
2023/01/24 12:24:12;;;;;;;49.65;25.38;;;2.80;99.90;;;;;;5092030;28;20024;-49
2023/01/24 12:26:43;;;;;;;45.28;25.27;;;2.70;99.90;;;;;;5093114;28;20106;-55
2023/01/24 12:29:26;;;;;;;45.70;24.50;;;2.60;99.90;;;;;;5092662;28;20020;-50
2023/01/24 12:31:58;;;;;;;50.70;25.60;;;2.70;99.90;;;;;;5092857;28;20020;-52
2023/01/24 12:34:43;;;;;;;44.55;24.08;;;2.70;99.90;;;;;;5092357;28;20466;-56
2023/01/24 12:37:23;;;;;;;48.10;24.75;;;2.70;99.90;;;;;;5092015;28;20020;-52
2023/01/24 12:40:13;;;;;;;52.75;24.42;;;2.60;99.90;;;;;;5091894;28;20540;-53
2023/01/24 12:43:16;;;;;;;43.80;22.73;;;2.40;99.90;;;;;;5092008;28;20739;-56
2023/01/24 12:46:21;;;;;;;48.03;25.77;;;2.50;99.90;;;;;;5091454;28;20031;-54
2023/01/24 12:48:52;;;;;;;59.25;24.83;;;2.40;99.90;;;;;;5091482;28;20072;-53
2023/01/24 12:51:27;;;;;;;50.17;25.10;;;2.30;99.90;;;;;;5092011;28;20028;-54
2023/01/24 12:54:09;;;;;;;48.85;25.55;;;2.40;99.90;;;;;;5091771;28;20028;-54
2023/01/24 12:56:44;;;;;;;54.88;25.45;;;2.40;99.90;;;;;;5091919;28;20016;-54
2023/01/24 12:59:12;;;;;;;53.97;26.50;;;2.40;99.90;;;;;;5091864;28;20127;-52
2023/01/24 13:01:50;;;;;;;51.75;26.85;;;2.30;99.90;;;;;;5091907;28;20023;-56
2023/01/24 13:04:48;;;;;;;64.47;26.17;;;2.30;99.90;;;;;;5091840;28;20024;-54
2023/01/24 13:07:35;;;;;;;58.67;27.17;;;2.30;99.90;;;;;;5090176;28;20031;-54
2023/01/24 13:10:31;;;;;;;58.13;26.00;;;2.30;99.90;;;;;;5091372;28;20044;-53
2023/01/24 13:13:00;;;;;;;66.15;28.00;;;2.40;99.90;;;;;;5091495;28;20099;-53
2023/01/24 13:15:48;;;;;;;63.30;26.98;;;2.30;99.90;;;;;;5091584;28;20066;-55
2023/01/24 13:18:40;;;;;;;65.50;28.25;;;2.30;99.90;;;;;;5091502;28;20096;-57
2023/01/24 13:21:24;;;;;;;53.63;26.73;;;2.30;99.90;;;;;;5091643;28;20046;-56
2023/01/24 13:23:56;;;;;;;55.13;25.95;;;2.30;99.90;;;;;;5091415;28;20076;-56
2023/01/24 13:26:27;;;;;;;54.33;27.00;;;2.30;99.90;;;;;;5094504;28;20016;-57
2023/01/24 13:29:12;;;;;;;59.97;24.05;;;2.30;99.90;;;;;;5095597;28;20568;-53
2023/01/24 13:31:49;;;;;;;50.88;24.10;;;2.50;99.90;;;;;;5095707;28;20027;-54